createdAt,value
2017-08-07T00:00:25.661Z,14.80
2017-08-07T00:02:53.226Z,14.90
2017-08-07T00:05:20.747Z,14.70
2017-08-07T00:07:48.278Z,14.60
2017-08-07T00:10:15.943Z,14.60
2017-08-07T00:12:43.909Z,14.60
2017-08-07T00:15:11.973Z,14.80
2017-08-07T00:17:40.047Z,14.70
2017-08-07T00:20:08.123Z,14.70
2017-08-07T00:22:36.840Z,14.80
2017-08-07T00:25:06.600Z,14.60
2017-08-07T00:27:36.207Z,14.60
2017-08-07T00:30:06.474Z,14.50
2017-08-07T00:32:35.839Z,14.60
2017-08-07T00:35:06.256Z,14.50
2017-08-07T00:37:36.051Z,14.50
2017-08-07T00:40:06.306Z,14.50
2017-08-07T00:42:35.978Z,14.40
2017-08-07T00:45:08.906Z,14.40
2017-08-07T00:47:37.331Z,14.40
2017-08-07T00:50:05.845Z,14.40
2017-08-07T00:52:35.943Z,14.50
2017-08-07T00:55:06.667Z,14.40
2017-08-07T00:57:39.863Z,14.40
2017-08-07T01:00:09.984Z,14.30
2017-08-07T01:02:38.287Z,14.40
2017-08-07T01:05:08.203Z,14.50
2017-08-07T01:07:37.302Z,14.50
2017-08-07T01:10:08.233Z,14.40
2017-08-07T01:12:38.631Z,14.30
2017-08-07T01:15:07.604Z,14.50
2017-08-07T01:17:38.276Z,14.40
2017-08-07T01:20:21.697Z,14.20
2017-08-07T01:22:50.003Z,14.30
2017-08-07T01:25:17.529Z,14.20
2017-08-07T01:27:45.888Z,14.10
2017-08-07T01:30:15.475Z,14.10
2017-08-07T01:32:45.127Z,14.00
2017-08-07T01:35:14.084Z,14.00
2017-08-07T01:37:43.261Z,14.00
2017-08-07T01:40:11.999Z,14.00
2017-08-07T01:42:40.553Z,14.00
2017-08-07T01:45:10.436Z,14.00
2017-08-07T01:47:39.639Z,14.10
2017-08-07T01:50:08.647Z,14.00
2017-08-07T01:52:36.455Z,14.10
2017-08-07T01:55:03.988Z,14.10
2017-08-07T01:57:31.522Z,14.10
2017-08-07T01:59:59.436Z,14.20
2017-08-07T02:02:28.403Z,14.10
2017-08-07T02:04:59.410Z,14.10
2017-08-07T02:07:27.544Z,14.30
2017-08-07T02:09:57.536Z,14.10
2017-08-07T02:12:27.541Z,14.20
2017-08-07T02:15:31.311Z,14.10
2017-08-07T02:17:59.264Z,14.10
2017-08-07T02:20:27.354Z,14.10
2017-08-07T02:23:00.163Z,14.20
2017-08-07T02:25:31.631Z,14.30
2017-08-07T02:31:07.047Z,14.20
2017-08-07T02:33:40.898Z,14.20
2017-08-07T02:36:15.394Z,14.30
2017-08-07T02:38:48.363Z,14.30
2017-08-07T02:41:19.015Z,14.20
2017-08-07T02:46:47.446Z,14.10
2017-08-07T02:49:17.894Z,14.00
2017-08-07T02:51:50.130Z,14.00
2017-08-07T02:54:22.345Z,14.10
2017-08-07T02:56:55.822Z,14.10
2017-08-07T02:59:26.607Z,14.10
2017-08-07T03:01:56.672Z,14.00
2017-08-07T03:04:26.745Z,13.90
2017-08-07T03:15:34.396Z,13.80
2017-08-07T03:18:14.495Z,13.60
2017-08-07T03:24:10.805Z,13.70
2017-08-07T03:26:44.616Z,13.60
2017-08-07T03:29:17.306Z,13.70
2017-08-07T03:31:50.015Z,13.60
2017-08-07T03:34:20.541Z,13.50
2017-08-07T03:36:50.657Z,13.50
2017-08-07T03:39:30.890Z,13.50
2017-08-07T03:42:13.020Z,13.50
2017-08-07T03:44:48.623Z,13.50
2017-08-07T03:47:19.604Z,13.50
2017-08-07T03:49:49.784Z,13.60
2017-08-07T03:52:19.568Z,13.50
2017-08-07T03:54:56.074Z,13.60
2017-08-07T03:57:31.924Z,13.40
2017-08-07T04:00:02.201Z,13.30
2017-08-07T04:02:52.447Z,13.30
2017-08-07T04:05:28.493Z,13.30
2017-08-07T04:08:02.449Z,13.50
2017-08-07T04:10:40.073Z,13.40
2017-08-07T04:13:13.774Z,13.40
2017-08-07T04:15:46.812Z,13.30
2017-08-07T04:18:17.336Z,13.30
2017-08-07T04:20:47.404Z,13.30
2017-08-07T04:23:19.201Z,13.30
2017-08-07T04:25:49.591Z,13.30
2017-08-07T04:28:23.814Z,13.30
2017-08-07T04:31:08.837Z,13.20
2017-08-07T04:34:23.196Z,13.20
2017-08-07T04:37:13.511Z,13.20
2017-08-07T04:40:03.237Z,13.10
2017-08-07T04:42:31.295Z,13.10
2017-08-07T04:48:21.662Z,13.10
2017-08-07T04:51:12.881Z,13.10
2017-08-07T04:53:57.572Z,13.10
2017-08-07T04:56:26.340Z,13.10
2017-08-07T04:58:56.331Z,13.20
2017-08-07T05:01:43.966Z,13.10
2017-08-07T05:04:25.556Z,13.10
2017-08-07T05:06:56.244Z,13.00
2017-08-07T05:09:33.156Z,13.10
2017-08-07T05:15:03.833Z,13.20
2017-08-07T05:21:08.709Z,13.20
2017-08-07T05:23:53.640Z,13.20
2017-08-07T05:26:37.919Z,13.30
2017-08-07T05:29:19.096Z,13.40
2017-08-07T05:35:04.066Z,13.40
2017-08-07T05:37:37.862Z,13.50
2017-08-07T05:40:05.392Z,13.70
2017-08-07T05:42:35.208Z,13.80
2017-08-07T05:45:05.028Z,13.90
2017-08-07T05:47:42.141Z,14.00
2017-08-07T05:50:38.917Z,14.00
2017-08-07T05:53:18.953Z,14.10
2017-08-07T05:56:09.607Z,14.20
2017-08-07T05:58:37.529Z,14.40
2017-08-07T06:01:05.053Z,14.50
2017-08-07T06:03:33.236Z,14.50
2017-08-07T06:06:04.088Z,14.50
2017-08-07T06:08:33.772Z,14.50
2017-08-07T06:11:04.212Z,14.50
2017-08-07T06:13:34.474Z,14.60
2017-08-07T06:16:04.589Z,14.70
2017-08-07T06:18:34.457Z,14.80
2017-08-07T06:21:08.173Z,14.90
2017-08-07T06:23:36.544Z,15.10
2017-08-07T06:26:04.891Z,15.20
2017-08-07T06:28:34.897Z,15.30
2017-08-07T06:31:13.467Z,15.40
2017-08-07T06:33:43.399Z,15.50
2017-08-07T06:36:11.303Z,15.70
2017-08-07T06:38:38.881Z,15.80
2017-08-07T06:41:06.411Z,15.90
2017-08-07T06:43:35.188Z,16.00
2017-08-07T06:46:04.332Z,16.10
2017-08-07T06:51:27.477Z,16.30
2017-08-07T06:57:21.639Z,16.40
2017-08-07T06:59:49.853Z,16.50
2017-08-07T07:02:21.119Z,16.60
2017-08-07T07:04:49.799Z,16.70
2017-08-07T07:07:18.087Z,16.80
2017-08-07T07:09:45.777Z,17.00
2017-08-07T07:12:14.612Z,17.00
2017-08-07T07:14:42.189Z,17.10
2017-08-07T07:17:09.716Z,17.00
2017-08-07T07:19:37.289Z,17.30
2017-08-07T07:22:04.836Z,17.50
2017-08-07T07:24:32.407Z,17.50
2017-08-07T07:26:59.931Z,17.50
2017-08-07T07:29:27.500Z,17.40
2017-08-07T07:31:55.078Z,17.50
2017-08-07T07:34:22.703Z,17.70
2017-08-07T07:36:50.341Z,17.80
2017-08-07T07:39:17.942Z,18.00
2017-08-07T07:41:46.378Z,18.10
2017-08-07T07:44:14.822Z,18.30
2017-08-07T07:46:42.499Z,18.40
2017-08-07T07:49:10.056Z,18.50
2017-08-07T07:51:37.637Z,18.60
2017-08-07T07:54:05.163Z,18.70
2017-08-07T07:56:32.720Z,18.90
2017-08-07T07:59:00.249Z,18.90
2017-08-07T08:01:27.843Z,19.10
2017-08-07T08:03:55.442Z,19.20
2017-08-07T08:06:23.079Z,19.30
2017-08-07T08:08:50.867Z,19.40
2017-08-07T08:11:19.207Z,19.50
2017-08-07T08:13:46.840Z,19.50
2017-08-07T08:16:14.551Z,19.60
2017-08-07T08:18:42.093Z,19.70
2017-08-07T08:21:09.697Z,19.70
2017-08-07T08:23:37.321Z,19.80
2017-08-07T08:26:05.218Z,19.90
2017-08-07T08:28:32.998Z,20.00
2017-08-07T08:31:01.004Z,20.00
2017-08-07T08:33:28.798Z,20.20
2017-08-07T08:35:56.471Z,20.30
2017-08-07T08:38:24.006Z,20.40
2017-08-07T08:40:51.576Z,20.40
2017-08-07T08:43:19.821Z,20.50
2017-08-07T08:45:48.150Z,20.50
2017-08-07T08:48:16.336Z,20.60
2017-08-07T08:50:44.189Z,20.70
2017-08-07T08:53:13.117Z,20.90
2017-08-07T08:55:41.940Z,20.90
2017-08-07T08:58:11.097Z,20.90
2017-08-07T09:00:41.987Z,20.80
2017-08-07T09:03:11.342Z,20.90
2017-08-07T09:05:41.244Z,21.10
2017-08-07T09:08:10.858Z,21.20
2017-08-07T09:10:38.728Z,21.20
2017-08-07T09:13:06.430Z,21.40
2017-08-07T09:15:34.603Z,21.40
2017-08-07T09:18:02.173Z,21.40
2017-08-07T09:20:29.709Z,21.40
2017-08-07T09:22:57.309Z,21.50
2017-08-07T09:25:24.849Z,21.50
2017-08-07T09:27:52.412Z,21.60
2017-08-07T09:30:20.207Z,21.60
2017-08-07T09:32:47.823Z,21.70
2017-08-07T09:35:15.385Z,21.90
2017-08-07T09:37:43.075Z,21.90
2017-08-07T09:40:10.804Z,22.00
2017-08-07T09:42:38.407Z,22.10
2017-08-07T09:45:05.933Z,22.20
2017-08-07T09:47:33.647Z,22.30
2017-08-07T09:50:01.188Z,22.40
2017-08-07T09:52:28.760Z,22.50
2017-08-07T09:54:56.293Z,22.50
2017-08-07T09:57:23.940Z,22.60
2017-08-07T09:59:51.490Z,22.60
2017-08-07T10:02:19.118Z,22.80
2017-08-07T10:04:46.867Z,22.80
2017-08-07T10:07:14.686Z,22.90
2017-08-07T10:09:42.264Z,22.80
2017-08-07T10:12:09.931Z,22.90
2017-08-07T10:14:37.730Z,23.00
2017-08-07T10:17:05.359Z,23.10
2017-08-07T10:19:32.908Z,23.10
2017-08-07T10:22:00.445Z,23.20
2017-08-07T10:24:28.007Z,23.20
2017-08-07T10:26:55.653Z,23.30
2017-08-07T10:29:23.259Z,23.40
2017-08-07T10:31:51.058Z,23.50
2017-08-07T10:34:19.447Z,23.50
2017-08-07T10:36:48.022Z,23.60
2017-08-07T10:39:15.947Z,23.80
2017-08-07T10:41:43.516Z,23.90
2017-08-07T10:44:11.199Z,24.00
2017-08-07T10:46:38.792Z,24.00
2017-08-07T10:49:06.370Z,24.10
2017-08-07T10:51:33.896Z,24.20
2017-08-07T10:54:01.461Z,24.20
2017-08-07T10:56:29.187Z,24.20
2017-08-07T10:58:56.945Z,24.30
2017-08-07T11:01:24.799Z,24.40
2017-08-07T11:03:52.735Z,24.40
2017-08-07T11:06:20.799Z,24.30
2017-08-07T11:08:48.909Z,24.30
2017-08-07T11:11:18.106Z,24.40
2017-08-07T11:13:45.857Z,24.50
2017-08-07T11:16:13.417Z,24.70
2017-08-07T11:18:41.065Z,24.70
2017-08-07T11:21:08.645Z,24.70
2017-08-07T11:23:36.226Z,24.90
2017-08-07T11:26:03.761Z,24.90
2017-08-07T11:28:31.411Z,25.00
2017-08-07T11:30:59.110Z,25.10
2017-08-07T11:33:27.824Z,25.20
2017-08-07T11:35:55.914Z,25.20
2017-08-07T11:38:23.874Z,25.20
2017-08-07T11:40:51.568Z,25.20
2017-08-07T11:43:19.255Z,25.30
2017-08-07T11:45:46.912Z,25.50
2017-08-07T11:48:14.447Z,25.60
2017-08-07T11:50:42.188Z,25.70
2017-08-07T11:53:09.722Z,25.80
2017-08-07T11:55:37.495Z,25.80
2017-08-07T11:58:05.170Z,25.80
2017-08-07T12:00:33.300Z,25.80
2017-08-07T12:03:00.952Z,25.90
2017-08-07T12:05:28.654Z,26.10
2017-08-07T12:07:56.358Z,26.00
2017-08-07T12:10:23.919Z,26.00
2017-08-07T12:12:51.453Z,26.10
2017-08-07T12:15:19.040Z,26.20
2017-08-07T12:17:46.573Z,26.10
2017-08-07T12:20:14.139Z,26.00
2017-08-07T12:22:41.712Z,26.00
2017-08-07T12:25:09.277Z,25.90
2017-08-07T12:27:36.987Z,25.90
2017-08-07T12:30:04.621Z,26.10
2017-08-07T12:32:32.554Z,26.10
2017-08-07T12:35:00.450Z,26.10
2017-08-07T12:37:28.589Z,26.10
2017-08-07T12:39:56.823Z,26.10
2017-08-07T12:42:24.582Z,26.10
2017-08-07T12:44:52.174Z,26.20
2017-08-07T12:47:19.762Z,26.30
2017-08-07T12:49:47.320Z,26.30
2017-08-07T12:52:14.901Z,26.40
2017-08-07T12:54:42.436Z,26.40
2017-08-07T12:57:10.061Z,26.40
2017-08-07T12:59:37.655Z,26.50
2017-08-07T13:02:05.349Z,26.60
2017-08-07T13:04:32.924Z,26.70
2017-08-07T13:07:00.517Z,26.70
2017-08-07T13:09:28.552Z,26.60
2017-08-07T13:11:56.280Z,26.50
2017-08-07T13:14:23.816Z,26.60
2017-08-07T13:16:51.415Z,26.50
2017-08-07T13:19:18.961Z,26.60
2017-08-07T13:21:46.539Z,26.70
2017-08-07T13:24:14.079Z,26.70
2017-08-07T13:26:41.795Z,26.80
2017-08-07T13:29:09.389Z,26.80
2017-08-07T13:31:36.957Z,26.90
2017-08-07T13:34:04.525Z,26.70
2017-08-07T13:36:32.129Z,26.90
2017-08-07T13:38:59.658Z,26.90
2017-08-07T13:41:27.247Z,27.10
2017-08-07T13:43:54.773Z,27.20
2017-08-07T13:46:22.313Z,27.30
2017-08-07T13:48:49.882Z,27.30
2017-08-07T13:51:17.464Z,27.20
2017-08-07T13:53:45.058Z,27.20
2017-08-07T13:56:12.583Z,27.20
2017-08-07T13:58:40.152Z,27.30
2017-08-07T14:01:07.697Z,27.30
2017-08-07T14:03:35.264Z,27.40
2017-08-07T14:06:02.792Z,27.40
2017-08-07T14:08:30.364Z,27.30
2017-08-07T14:10:57.919Z,27.40
2017-08-07T14:13:25.483Z,27.50
2017-08-07T14:15:53.013Z,27.50
2017-08-07T14:18:20.608Z,27.40
2017-08-07T14:20:48.145Z,27.40
2017-08-07T14:23:15.719Z,27.40
2017-08-07T14:25:43.252Z,27.60
2017-08-07T14:28:10.828Z,27.60
2017-08-07T14:30:38.377Z,27.60
2017-08-07T14:33:06.026Z,27.70
2017-08-07T14:35:33.582Z,27.90
2017-08-07T14:38:01.160Z,27.90
2017-08-07T14:40:28.695Z,27.90
2017-08-07T14:42:56.284Z,28.00
2017-08-07T14:45:23.832Z,28.10
2017-08-07T14:47:51.428Z,28.10
2017-08-07T14:50:18.964Z,28.20
2017-08-07T14:52:46.509Z,28.10
2017-08-07T14:55:14.092Z,28.40
2017-08-07T14:57:41.671Z,28.50
2017-08-07T15:00:09.229Z,28.70
2017-08-07T15:02:36.843Z,28.80
2017-08-07T15:05:04.442Z,29.20
2017-08-07T15:07:32.028Z,29.30
2017-08-07T15:09:59.570Z,29.40
2017-08-07T15:12:27.169Z,29.40
2017-08-07T15:14:54.699Z,29.60
2017-08-07T15:17:23.142Z,29.80
2017-08-07T15:19:50.685Z,30.00
2017-08-07T15:22:18.281Z,30.20
2017-08-07T15:24:46.058Z,30.30
2017-08-07T15:27:13.588Z,30.40
2017-08-07T15:29:41.152Z,30.40
2017-08-07T15:32:08.760Z,30.40
2017-08-07T15:34:36.375Z,30.40
2017-08-07T15:37:04.923Z,30.20
2017-08-07T15:39:32.789Z,29.90
2017-08-07T15:42:00.444Z,29.50
2017-08-07T15:44:28.053Z,29.10
2017-08-07T15:46:55.739Z,28.80
2017-08-07T15:49:23.322Z,28.50
2017-08-07T15:51:50.900Z,28.20
2017-08-07T15:54:18.437Z,27.70
2017-08-07T15:56:46.035Z,27.50
2017-08-07T15:59:13.927Z,27.20
2017-08-07T16:01:41.512Z,27.00
2017-08-07T16:04:09.452Z,26.70
2017-08-07T16:06:37.244Z,26.50
2017-08-07T16:09:05.043Z,26.30
2017-08-07T16:11:32.907Z,26.30
2017-08-07T16:14:00.546Z,25.90
2017-08-07T16:16:28.160Z,25.80
2017-08-07T16:18:55.754Z,25.70
2017-08-07T16:21:23.287Z,25.40
2017-08-07T16:23:50.860Z,25.40
2017-08-07T16:26:18.417Z,25.20
2017-08-07T16:28:45.996Z,25.00
2017-08-07T16:31:13.563Z,24.90
2017-08-07T16:33:41.281Z,24.90
2017-08-07T16:38:42.933Z,24.50
2017-08-07T16:41:10.547Z,24.50
2017-08-07T16:43:38.347Z,24.40
2017-08-07T16:46:05.965Z,24.20
2017-08-07T16:48:33.677Z,24.10
2017-08-07T16:51:01.281Z,24.10
2017-08-07T16:53:28.856Z,24.00
2017-08-07T16:55:56.385Z,23.80
2017-08-07T16:58:23.960Z,23.90
2017-08-07T17:00:51.501Z,23.70
2017-08-07T17:03:19.093Z,23.70
2017-08-07T17:05:46.632Z,23.70
2017-08-07T17:08:14.200Z,23.70
2017-08-07T17:10:42.157Z,23.70
2017-08-07T17:13:09.768Z,23.60
2017-08-07T17:15:37.425Z,23.50
2017-08-07T17:18:05.887Z,23.50
2017-08-07T17:20:33.726Z,23.50
2017-08-07T17:23:01.412Z,23.60
2017-08-07T17:25:28.965Z,23.40
2017-08-07T17:27:56.505Z,23.30
2017-08-07T17:30:24.093Z,23.10
2017-08-07T17:32:51.624Z,23.00
2017-08-07T17:35:19.200Z,23.00
2017-08-07T17:37:46.728Z,22.90
2017-08-07T17:40:14.297Z,23.00
2017-08-07T17:42:41.849Z,22.90
2017-08-07T17:45:09.497Z,22.90
2017-08-07T17:47:37.082Z,22.90
2017-08-07T17:50:04.684Z,23.00
2017-08-07T17:52:32.235Z,23.00
2017-08-07T17:54:59.917Z,23.10
2017-08-07T17:57:27.453Z,23.00
2017-08-07T17:59:54.987Z,23.00
2017-08-07T18:02:22.558Z,23.00
2017-08-07T18:04:50.126Z,22.90
2017-08-07T18:07:17.696Z,22.80
2017-08-07T18:09:45.227Z,22.50
2017-08-07T18:12:12.798Z,22.40
2017-08-07T18:14:40.344Z,22.40
2017-08-07T18:17:07.916Z,22.30
2017-08-07T18:19:35.455Z,22.30
2017-08-07T18:22:03.029Z,22.20
2017-08-07T18:24:30.560Z,22.10
2017-08-07T18:26:58.123Z,22.00
2017-08-07T18:29:26.631Z,21.90
2017-08-07T18:31:54.272Z,21.80
2017-08-07T18:34:21.806Z,21.80
2017-08-07T18:36:49.381Z,21.60
2017-08-07T18:39:16.918Z,21.50
2017-08-07T18:41:44.502Z,21.40
2017-08-07T18:44:12.038Z,21.30
2017-08-07T18:46:39.608Z,21.20
2017-08-07T18:49:07.149Z,21.30
2017-08-07T18:51:34.739Z,21.20
2017-08-07T18:54:02.273Z,21.10
2017-08-07T18:56:29.852Z,21.10
2017-08-07T18:58:57.404Z,21.00
2017-08-07T19:01:24.967Z,20.90
2017-08-07T19:03:52.506Z,20.70
2017-08-07T19:06:20.083Z,20.60
2017-08-07T19:08:47.608Z,20.40
2017-08-07T19:11:15.204Z,20.40
2017-08-07T19:13:42.761Z,20.50
2017-08-07T19:16:10.344Z,20.40
2017-08-07T19:18:37.890Z,20.30
2017-08-07T19:21:05.454Z,20.20
2017-08-07T19:23:33.038Z,20.00
2017-08-07T19:26:00.617Z,20.00
2017-08-07T19:28:28.200Z,19.90
2017-08-07T19:30:55.746Z,19.90
2017-08-07T19:33:23.315Z,19.90
2017-08-07T19:35:50.929Z,19.90
2017-08-07T19:38:18.504Z,19.80
2017-08-07T19:40:46.034Z,19.70
2017-08-07T19:43:13.605Z,19.60
2017-08-07T19:45:41.153Z,19.60
2017-08-07T19:48:08.720Z,19.50
2017-08-07T19:50:36.272Z,19.50
2017-08-07T19:53:03.844Z,19.40
2017-08-07T19:55:31.375Z,19.40
2017-08-07T19:57:58.951Z,19.30
2017-08-07T20:00:26.500Z,19.30
2017-08-07T20:02:54.069Z,19.20
2017-08-07T20:05:21.602Z,19.20
2017-08-07T20:07:49.184Z,19.20
2017-08-07T20:10:16.714Z,19.20
2017-08-07T20:12:44.272Z,19.10
2017-08-07T20:15:11.812Z,19.00
2017-08-07T20:17:40.225Z,19.00
2017-08-07T20:20:07.756Z,18.90
2017-08-07T20:22:35.343Z,19.00
2017-08-07T20:25:02.877Z,19.00
2017-08-07T20:27:30.420Z,18.90
2017-08-07T20:29:57.980Z,18.90
2017-08-07T20:32:25.560Z,18.70
2017-08-07T20:34:53.096Z,18.70
2017-08-07T20:37:20.627Z,18.60
2017-08-07T20:39:48.253Z,18.60
2017-08-07T20:42:15.881Z,18.70
2017-08-07T20:44:43.408Z,18.60
2017-08-07T20:47:10.937Z,18.50
2017-08-07T20:49:38.520Z,18.50
2017-08-07T20:52:06.048Z,18.40
2017-08-07T20:54:33.620Z,18.40
2017-08-07T20:57:01.152Z,18.40
2017-08-07T20:59:28.794Z,18.40
2017-08-07T21:01:56.336Z,18.40
2017-08-07T21:04:23.920Z,18.30
2017-08-07T21:06:51.454Z,18.30
2017-08-07T21:09:19.133Z,18.30
2017-08-07T21:11:46.716Z,18.30
2017-08-07T21:14:14.296Z,18.30
2017-08-07T21:16:41.836Z,18.20
2017-08-07T21:19:09.423Z,18.20
2017-08-07T21:21:36.962Z,18.30
2017-08-07T21:24:04.534Z,18.20
2017-08-07T21:26:32.069Z,18.20
2017-08-07T21:28:59.655Z,18.10
2017-08-07T21:31:27.218Z,18.00
2017-08-07T21:33:54.793Z,18.00
2017-08-07T21:36:22.325Z,17.90
2017-08-07T21:38:49.897Z,17.90
2017-08-07T21:41:17.443Z,17.90
2017-08-07T21:43:45.016Z,17.80
2017-08-07T21:46:12.553Z,17.80
2017-08-07T21:48:40.119Z,17.80
2017-08-07T21:51:07.652Z,17.70
2017-08-07T21:53:35.234Z,17.70
2017-08-07T21:56:02.867Z,17.70
2017-08-07T21:58:30.515Z,17.70
2017-08-07T22:00:58.095Z,17.70
2017-08-07T22:03:26.400Z,17.50
2017-08-07T22:05:54.002Z,17.50
2017-08-07T22:08:21.572Z,17.40
2017-08-07T22:10:49.113Z,17.40
2017-08-07T22:13:16.687Z,17.40
2017-08-07T22:15:44.227Z,17.50
2017-08-07T22:18:11.807Z,17.50
2017-08-07T22:20:39.336Z,17.40
2017-08-07T22:23:06.907Z,17.40
2017-08-07T22:25:34.474Z,17.30
2017-08-07T22:28:02.089Z,17.20
2017-08-07T22:30:29.812Z,17.30
2017-08-07T22:32:57.448Z,17.30
2017-08-07T22:35:25.076Z,17.40
2017-08-07T22:37:52.772Z,17.40
2017-08-07T22:40:20.309Z,17.20
2017-08-07T22:42:47.880Z,17.30
2017-08-07T22:45:15.410Z,17.20
2017-08-07T22:47:42.988Z,17.20
2017-08-07T22:50:10.519Z,17.20
2017-08-07T22:52:38.068Z,17.20
2017-08-07T22:55:05.734Z,17.20
2017-08-07T22:57:33.377Z,17.30
2017-08-07T23:00:01.059Z,17.30
2017-08-07T23:02:28.702Z,17.30
2017-08-07T23:04:56.479Z,17.20
2017-08-07T23:07:24.033Z,17.20
2017-08-07T23:09:51.602Z,17.20
2017-08-07T23:12:19.128Z,17.10
2017-08-07T23:14:46.720Z,16.90
2017-08-07T23:17:14.256Z,16.90
2017-08-07T23:19:41.779Z,16.80
2017-08-07T23:22:09.357Z,17.00
2017-08-07T23:24:36.991Z,17.00
2017-08-07T23:27:04.674Z,17.00
2017-08-07T23:29:32.251Z,16.90
2017-08-07T23:32:00.020Z,17.10
2017-08-07T23:34:27.868Z,17.10
2017-08-07T23:36:55.576Z,17.10
2017-08-07T23:39:23.137Z,17.00
2017-08-07T23:41:50.696Z,17.00
2017-08-07T23:44:18.220Z,16.90
2017-08-07T23:46:45.787Z,16.80
2017-08-07T23:49:13.321Z,16.90
2017-08-07T23:51:40.891Z,17.00
2017-08-07T23:54:08.431Z,16.90
2017-08-07T23:56:36.042Z,16.90
2017-08-07T23:59:03.669Z,17.10
